createdAt,value
2023-10-10T00:01:06.970Z,12.90
2023-10-10T00:03:41.009Z,12.90
2023-10-10T00:06:09.804Z,12.90
2023-10-10T00:08:42.141Z,12.90
2023-10-10T00:11:11.760Z,12.80
2023-10-10T00:13:43.772Z,12.80
2023-10-10T00:16:12.712Z,12.80
2023-10-10T00:18:44.802Z,12.80
2023-10-10T00:21:18.886Z,12.70
2023-10-10T00:23:48.498Z,12.70
2023-10-10T00:26:17.152Z,12.70
2023-10-10T00:28:46.365Z,12.70
2023-10-10T00:31:19.241Z,12.60
2023-10-10T00:33:51.603Z,12.60
2023-10-10T00:36:23.507Z,12.60
2023-10-10T00:39:06.317Z,12.60
2023-10-10T00:41:43.455Z,12.60
2023-10-10T00:44:13.408Z,12.50
2023-10-10T00:46:42.493Z,12.60
2023-10-10T00:49:18.153Z,12.60
2023-10-10T00:51:48.600Z,12.50
2023-10-10T00:54:27.657Z,12.40
2023-10-10T00:56:57.973Z,12.40
2023-10-10T00:59:33.674Z,12.30
2023-10-10T01:02:02.563Z,12.30
2023-10-10T01:04:36.848Z,12.20
2023-10-10T01:07:08.078Z,12.20
2023-10-10T01:09:41.061Z,12.20
2023-10-10T01:12:10.945Z,12.20
2023-10-10T01:14:39.699Z,12.20
2023-10-10T01:17:13.476Z,12.20
2023-10-10T01:19:45.500Z,12.20
2023-10-10T01:22:23.768Z,12.20
2023-10-10T01:24:54.688Z,12.20
2023-10-10T01:27:23.621Z,12.20
2023-10-10T01:30:13.567Z,12.20
2023-10-10T01:32:41.593Z,12.20
2023-10-10T01:35:17.907Z,12.10
2023-10-10T01:37:56.182Z,12.10
2023-10-10T01:40:25.464Z,12.10
2023-10-10T01:42:55.501Z,12.10
2023-10-10T01:45:27.998Z,12.00
2023-10-10T01:47:59.327Z,11.90
2023-10-10T01:50:28.379Z,12.00
2023-10-10T01:52:58.724Z,12.00
2023-10-10T01:55:27.257Z,12.00
2023-10-10T01:57:56.186Z,11.90
2023-10-10T02:00:27.916Z,12.00
2023-10-10T02:02:57.365Z,11.90
2023-10-10T02:05:43.029Z,11.90
2023-10-10T02:08:17.625Z,11.90
2023-10-10T02:10:47.294Z,11.90
2023-10-10T02:13:17.973Z,11.90
2023-10-10T02:15:45.912Z,11.90
2023-10-10T02:18:15.124Z,11.80
2023-10-10T02:20:52.084Z,11.80
2023-10-10T02:23:33.998Z,11.80
2023-10-10T02:26:15.602Z,11.80
2023-10-10T02:28:50.446Z,11.80
2023-10-10T02:31:20.101Z,11.80
2023-10-10T02:33:56.267Z,11.90
2023-10-10T02:36:32.011Z,11.90
2023-10-10T02:39:19.823Z,11.80
2023-10-10T02:41:52.649Z,11.80
2023-10-10T02:44:47.319Z,11.90
2023-10-10T02:47:15.615Z,11.80
2023-10-10T02:49:44.809Z,11.70
2023-10-10T02:52:15.809Z,11.70
2023-10-10T02:54:55.153Z,11.60
2023-10-10T02:57:28.990Z,11.60
2023-10-10T03:00:16.578Z,11.50
2023-10-10T03:02:51.316Z,11.50
2023-10-10T03:05:30.851Z,11.40
2023-10-10T03:07:58.756Z,11.40
2023-10-10T03:10:40.203Z,11.30
2023-10-10T03:13:14.716Z,11.40
2023-10-10T03:15:52.412Z,11.40
2023-10-10T03:18:29.264Z,11.40
2023-10-10T03:21:25.701Z,11.40
2023-10-10T03:23:56.931Z,11.30
2023-10-10T03:26:54.863Z,11.40
2023-10-10T03:29:37.619Z,11.40
2023-10-10T03:32:26.061Z,11.40
2023-10-10T03:34:58.717Z,11.40
2023-10-10T03:37:42.119Z,11.40
2023-10-10T03:40:28.413Z,11.30
2023-10-10T03:43:15.472Z,11.40
2023-10-10T03:46:01.542Z,11.40
2023-10-10T03:48:47.101Z,11.40
2023-10-10T03:51:32.597Z,11.40
2023-10-10T03:54:18.217Z,11.40
2023-10-10T03:57:03.662Z,11.30
2023-10-10T03:59:50.715Z,11.30
2023-10-10T04:02:36.249Z,11.30
2023-10-10T04:05:27.643Z,11.40
2023-10-10T04:08:15.392Z,11.40
2023-10-10T04:11:05.244Z,11.50
2023-10-10T04:13:50.738Z,11.40
2023-10-10T04:16:37.702Z,11.50
2023-10-10T04:19:23.006Z,11.60
2023-10-10T04:22:16.976Z,11.60
2023-10-10T04:25:03.037Z,11.60
2023-10-10T04:27:48.345Z,11.50
2023-10-10T04:30:33.981Z,11.30
2023-10-10T04:33:21.135Z,11.20
2023-10-10T04:36:06.605Z,11.20
2023-10-10T04:38:52.121Z,11.20
2023-10-10T04:41:37.469Z,11.20
2023-10-10T04:44:23.376Z,11.10
2023-10-10T04:47:09.002Z,11.10
2023-10-10T04:49:55.956Z,11.10
2023-10-10T04:52:41.189Z,11.10
2023-10-10T04:55:26.967Z,11.10
2023-10-10T04:58:12.725Z,11.10
2023-10-10T05:00:58.943Z,11.10
2023-10-10T05:03:44.540Z,11.00
2023-10-10T05:06:32.523Z,10.90
2023-10-10T05:09:19.257Z,11.00
2023-10-10T05:12:04.866Z,11.00
2023-10-10T05:14:50.416Z,11.00
2023-10-10T05:17:36.124Z,11.00
2023-10-10T05:20:36.227Z,11.10
2023-10-10T05:23:23.624Z,11.20
2023-10-10T05:25:55.086Z,11.10
2023-10-10T05:28:30.952Z,11.10
2023-10-10T05:30:59.075Z,11.10
2023-10-10T05:33:28.078Z,11.10
2023-10-10T05:36:01.505Z,11.10
2023-10-10T05:38:31.774Z,11.20
2023-10-10T05:41:03.864Z,11.20
2023-10-10T05:43:35.279Z,11.20
2023-10-10T05:46:05.055Z,11.20
2023-10-10T05:48:33.455Z,11.20
2023-10-10T05:51:02.114Z,11.30
2023-10-10T05:53:34.133Z,11.40
2023-10-10T05:56:14.038Z,11.40
2023-10-10T05:58:45.709Z,11.30
2023-10-10T06:01:15.082Z,11.30
2023-10-10T06:03:45.900Z,11.40
2023-10-10T06:06:15.049Z,11.50
2023-10-10T06:08:45.717Z,11.40
2023-10-10T06:11:16.458Z,11.30
2023-10-10T06:13:45.944Z,11.30
2023-10-10T06:16:16.291Z,11.30
2023-10-10T06:18:46.306Z,11.30
2023-10-10T06:21:15.819Z,11.30
2023-10-10T06:23:46.692Z,11.40
2023-10-10T06:26:15.342Z,11.50
2023-10-10T06:28:51.668Z,11.50
2023-10-10T06:31:22.367Z,11.60
2023-10-10T06:33:54.493Z,11.60
2023-10-10T06:36:34.504Z,11.60
2023-10-10T06:39:22.778Z,11.70
2023-10-10T06:41:55.628Z,11.90
2023-10-10T06:44:36.962Z,12.00
2023-10-10T06:47:13.801Z,12.20
2023-10-10T06:49:57.685Z,12.30
2023-10-10T06:52:28.651Z,12.50
2023-10-10T06:54:58.776Z,12.70
2023-10-10T06:57:41.544Z,12.80
2023-10-10T07:00:21.652Z,12.70
2023-10-10T07:02:52.068Z,12.80
2023-10-10T07:05:21.419Z,12.90
2023-10-10T07:07:54.193Z,13.10
2023-10-10T07:10:27.536Z,13.20
2023-10-10T07:12:59.152Z,13.40
2023-10-10T07:15:27.389Z,13.50
2023-10-10T07:18:09.228Z,13.60
2023-10-10T07:20:55.439Z,13.70
2023-10-10T07:23:23.859Z,13.70
2023-10-10T07:26:01.030Z,13.70
2023-10-10T07:28:29.427Z,13.70
2023-10-10T07:30:57.736Z,13.80
2023-10-10T07:33:31.073Z,13.90
2023-10-10T07:36:01.457Z,14.00
2023-10-10T07:38:29.813Z,14.00
2023-10-10T07:40:59.104Z,14.10
2023-10-10T07:43:28.550Z,14.10
2023-10-10T07:45:56.841Z,14.20
2023-10-10T07:48:45.409Z,14.30
2023-10-10T07:51:23.616Z,14.40
2023-10-10T07:53:59.929Z,14.50
2023-10-10T07:56:33.737Z,14.60
2023-10-10T07:59:01.692Z,14.70
2023-10-10T08:01:29.568Z,14.60
2023-10-10T08:03:57.700Z,14.80
2023-10-10T08:06:27.152Z,15.00
2023-10-10T08:09:12.112Z,15.20
2023-10-10T08:11:41.758Z,15.40
2023-10-10T08:14:10.585Z,15.40
2023-10-10T08:16:40.916Z,15.50
2023-10-10T08:19:09.774Z,15.60
2023-10-10T08:21:41.355Z,15.70
2023-10-10T08:24:13.262Z,15.70
2023-10-10T08:26:43.455Z,15.70
2023-10-10T08:29:12.507Z,15.70
2023-10-10T08:31:43.478Z,15.80
2023-10-10T08:34:11.637Z,15.70
2023-10-10T08:36:44.874Z,15.80
2023-10-10T08:39:25.977Z,15.80
2023-10-10T08:41:57.002Z,15.90
2023-10-10T08:44:25.934Z,15.90
2023-10-10T08:46:59.211Z,15.90
2023-10-10T08:49:30.546Z,16.00
2023-10-10T08:52:02.290Z,16.20
2023-10-10T08:54:30.880Z,16.30
2023-10-10T08:57:04.942Z,16.40
2023-10-10T08:59:34.079Z,16.60
2023-10-10T09:02:13.489Z,16.70
2023-10-10T09:04:41.566Z,16.70
2023-10-10T09:07:21.329Z,16.70
2023-10-10T09:09:56.765Z,16.80
2023-10-10T09:12:26.561Z,17.00
2023-10-10T09:14:54.573Z,17.10
2023-10-10T09:17:30.738Z,17.20
2023-10-10T09:19:59.308Z,17.20
2023-10-10T09:22:43.430Z,17.20
2023-10-10T09:25:22.595Z,17.20
2023-10-10T09:28:04.788Z,17.20
2023-10-10T09:30:34.055Z,17.40
2023-10-10T09:33:14.150Z,17.50
2023-10-10T09:35:50.024Z,17.60
2023-10-10T09:38:21.847Z,18.00
2023-10-10T09:41:00.273Z,18.20
2023-10-10T09:43:37.624Z,18.30
2023-10-10T09:46:12.365Z,18.30
2023-10-10T09:49:18.636Z,18.40
2023-10-10T09:52:04.188Z,18.50
2023-10-10T09:54:36.431Z,18.50
2023-10-10T09:57:09.526Z,18.50
2023-10-10T09:59:43.346Z,18.40
2023-10-10T10:02:16.485Z,18.60
2023-10-10T10:04:46.172Z,19.10
2023-10-10T10:07:25.075Z,19.40
2023-10-10T10:10:35.071Z,19.50
2023-10-10T10:13:20.485Z,19.70
2023-10-10T10:16:21.074Z,19.80
2023-10-10T10:18:53.525Z,19.90
2023-10-10T10:21:32.136Z,20.10
2023-10-10T10:24:14.430Z,20.30
2023-10-10T10:26:44.553Z,20.30
2023-10-10T10:29:30.565Z,19.80
2023-10-10T10:32:03.953Z,19.50
2023-10-10T10:34:37.133Z,20.00
2023-10-10T10:37:07.948Z,20.30
2023-10-10T10:39:36.500Z,20.60
2023-10-10T10:42:14.204Z,20.70
2023-10-10T10:44:49.367Z,20.80
2023-10-10T10:47:56.924Z,20.90
2023-10-10T10:50:47.783Z,21.20
2023-10-10T10:53:22.359Z,21.50
2023-10-10T10:56:07.500Z,21.50
2023-10-10T10:58:48.970Z,21.30
2023-10-10T11:01:18.756Z,20.80
2023-10-10T11:03:55.603Z,21.10
2023-10-10T11:06:25.724Z,21.20
2023-10-10T11:09:09.739Z,21.50
2023-10-10T11:11:41.518Z,21.60
2023-10-10T11:14:20.557Z,21.70
2023-10-10T11:16:57.668Z,21.60
2023-10-10T11:19:40.017Z,21.80
2023-10-10T11:22:13.894Z,21.70
2023-10-10T11:24:48.007Z,21.70
2023-10-10T11:27:23.294Z,21.50
2023-10-10T11:29:54.012Z,21.50
2023-10-10T11:32:26.490Z,21.10
2023-10-10T11:34:57.404Z,21.00
2023-10-10T11:37:32.433Z,21.10
2023-10-10T11:40:30.743Z,21.20
2023-10-10T11:43:04.653Z,20.80
2023-10-10T11:45:41.067Z,20.60
2023-10-10T11:48:15.815Z,20.90
2023-10-10T11:50:47.476Z,20.70
2023-10-10T11:53:20.613Z,20.80
2023-10-10T11:55:48.936Z,20.90
2023-10-10T11:58:18.736Z,20.90
2023-10-10T12:01:00.682Z,21.20
2023-10-10T12:03:43.682Z,20.80
2023-10-10T12:06:21.261Z,20.90
2023-10-10T12:08:51.362Z,21.20
2023-10-10T12:11:21.500Z,20.70
2023-10-10T12:13:51.668Z,20.90
2023-10-10T12:16:24.993Z,20.70
2023-10-10T12:18:54.605Z,20.70
2023-10-10T12:21:27.278Z,20.50
2023-10-10T12:24:00.430Z,20.40
2023-10-10T12:26:32.695Z,20.70
2023-10-10T12:29:04.019Z,21.00
2023-10-10T12:31:35.098Z,21.20
2023-10-10T12:34:03.877Z,21.00
2023-10-10T12:36:34.432Z,21.00
2023-10-10T12:39:07.469Z,20.90
2023-10-10T12:41:47.422Z,21.00
2023-10-10T12:44:15.903Z,20.90
2023-10-10T12:46:44.039Z,21.00
2023-10-10T12:49:13.122Z,21.20
2023-10-10T12:51:46.024Z,21.10
2023-10-10T12:54:18.816Z,21.10
2023-10-10T12:56:59.631Z,21.30
2023-10-10T12:59:32.248Z,21.40
2023-10-10T13:02:04.886Z,21.40
2023-10-10T13:04:33.901Z,21.40
2023-10-10T13:07:05.082Z,21.20
2023-10-10T13:09:43.670Z,21.10
2023-10-10T13:12:19.585Z,21.30
2023-10-10T13:15:06.391Z,21.30
2023-10-10T13:17:51.258Z,21.20
2023-10-10T13:20:20.136Z,21.10
2023-10-10T13:22:51.588Z,21.10
2023-10-10T13:25:21.609Z,21.30
2023-10-10T13:27:53.321Z,21.40
2023-10-10T13:30:21.694Z,21.50
2023-10-10T13:32:50.007Z,21.30
2023-10-10T13:35:21.353Z,21.40
2023-10-10T13:37:50.982Z,21.20
2023-10-10T13:40:24.164Z,21.30
2023-10-10T13:42:52.327Z,21.40
2023-10-10T13:45:23.942Z,21.40
2023-10-10T13:47:52.348Z,21.30
2023-10-10T13:50:42.763Z,21.50
2023-10-10T13:53:14.290Z,21.60
2023-10-10T13:55:50.109Z,21.60
2023-10-10T13:58:18.216Z,21.70
2023-10-10T14:00:53.808Z,21.60
2023-10-10T14:03:30.434Z,21.80
2023-10-10T14:06:05.406Z,21.80
2023-10-10T14:08:35.174Z,21.50
2023-10-10T14:11:03.425Z,21.50
2023-10-10T14:13:33.709Z,21.50
2023-10-10T14:16:02.698Z,21.40
2023-10-10T14:18:32.421Z,21.30
2023-10-10T14:21:09.841Z,21.40
2023-10-10T14:23:40.776Z,21.50
2023-10-10T14:26:18.372Z,21.40
2023-10-10T14:28:51.738Z,21.30
2023-10-10T14:31:22.689Z,21.20
2023-10-10T14:33:51.501Z,21.20
2023-10-10T14:36:19.951Z,21.30
2023-10-10T14:38:51.491Z,21.30
2023-10-10T14:41:21.096Z,21.30
2023-10-10T14:43:50.371Z,21.20
2023-10-10T14:46:23.490Z,21.30
2023-10-10T14:48:52.974Z,21.00
2023-10-10T14:51:24.181Z,21.00
2023-10-10T14:53:54.059Z,21.00
2023-10-10T14:56:35.207Z,21.10
2023-10-10T14:59:05.071Z,21.10
2023-10-10T15:01:35.537Z,21.00
2023-10-10T15:04:06.751Z,20.90
2023-10-10T15:06:35.766Z,20.70
2023-10-10T15:09:05.290Z,20.60
2023-10-10T15:11:34.224Z,20.40
2023-10-10T15:14:07.246Z,20.10
2023-10-10T15:16:37.181Z,20.00
2023-10-10T15:19:07.712Z,19.80
2023-10-10T15:21:38.517Z,19.60
2023-10-10T15:24:12.748Z,19.20
2023-10-10T15:26:42.551Z,18.80
2023-10-10T15:29:12.422Z,18.70
2023-10-10T15:31:43.577Z,18.30
2023-10-10T15:34:13.026Z,18.20
2023-10-10T15:36:45.019Z,18.10
2023-10-10T15:39:15.025Z,18.00
2023-10-10T15:41:44.607Z,18.10
2023-10-10T15:44:15.737Z,18.10
2023-10-10T15:46:45.430Z,18.00
2023-10-10T15:52:06.134Z,17.80
2023-10-10T15:54:36.149Z,17.70
2023-10-10T15:57:07.567Z,17.70
2023-10-10T15:59:36.980Z,17.50
2023-10-10T16:02:09.968Z,17.40
2023-10-10T16:04:44.535Z,17.30
2023-10-10T16:07:17.177Z,17.20
2023-10-10T16:09:46.823Z,17.10
2023-10-10T16:12:14.950Z,17.00
2023-10-10T16:14:43.092Z,17.00
2023-10-10T16:17:17.057Z,16.90
2023-10-10T16:19:45.561Z,16.80
2023-10-10T16:22:14.432Z,16.70
2023-10-10T16:24:42.435Z,16.70
2023-10-10T16:27:11.723Z,16.70
2023-10-10T16:29:39.731Z,16.70
2023-10-10T16:32:10.064Z,16.60
2023-10-10T16:34:43.697Z,16.50
2023-10-10T16:37:15.883Z,16.40
2023-10-10T16:39:45.914Z,16.40
2023-10-10T16:42:16.420Z,16.40
2023-10-10T16:44:46.376Z,16.20
2023-10-10T16:47:18.174Z,16.20
2023-10-10T16:49:46.679Z,16.10
2023-10-10T16:52:14.582Z,16.10
2023-10-10T16:54:47.147Z,16.00
2023-10-10T16:57:16.440Z,16.00
2023-10-10T16:59:44.983Z,16.00
2023-10-10T17:02:13.688Z,15.90
2023-10-10T17:04:43.191Z,15.90
2023-10-10T17:07:12.371Z,15.90
2023-10-10T17:09:41.124Z,15.90
2023-10-10T17:12:09.268Z,15.90
2023-10-10T17:14:38.882Z,15.80
2023-10-10T17:17:06.941Z,15.70
2023-10-10T17:19:36.812Z,15.70
2023-10-10T17:22:04.871Z,15.60
2023-10-10T17:24:33.374Z,15.60
2023-10-10T17:27:01.832Z,15.50
2023-10-10T17:29:30.860Z,15.40
2023-10-10T17:32:00.998Z,15.50
2023-10-10T17:34:34.299Z,15.40
2023-10-10T17:37:02.303Z,15.50
2023-10-10T17:39:34.901Z,15.50
2023-10-10T17:42:03.590Z,15.40
2023-10-10T17:44:33.709Z,15.40
2023-10-10T17:47:04.152Z,15.30
2023-10-10T17:49:32.002Z,15.40
2023-10-10T17:51:59.957Z,15.30
2023-10-10T17:54:29.908Z,15.30
2023-10-10T17:56:58.087Z,15.20
2023-10-10T17:59:25.981Z,15.20
2023-10-10T18:01:54.968Z,15.20
2023-10-10T18:04:26.881Z,15.10
2023-10-10T18:06:55.478Z,15.10
2023-10-10T18:09:23.486Z,15.10
2023-10-10T18:11:51.433Z,15.00
2023-10-10T18:14:19.568Z,15.00
2023-10-10T18:16:47.907Z,15.00
2023-10-10T18:19:16.940Z,15.00
2023-10-10T18:21:46.780Z,15.00
2023-10-10T18:24:15.052Z,14.90
2023-10-10T18:26:43.387Z,14.90
2023-10-10T18:29:11.464Z,14.90
2023-10-10T18:31:39.811Z,14.80
2023-10-10T18:34:08.312Z,14.80
2023-10-10T18:36:38.487Z,14.80
2023-10-10T18:39:13.606Z,14.70
2023-10-10T18:41:43.722Z,14.70
2023-10-10T18:44:16.794Z,14.80
2023-10-10T18:46:45.549Z,14.80
2023-10-10T18:49:14.553Z,14.80
2023-10-10T18:51:43.623Z,14.70
2023-10-10T18:54:13.744Z,14.80
2023-10-10T18:56:42.031Z,14.80
2023-10-10T18:59:10.405Z,14.80
2023-10-10T19:01:38.913Z,14.80
2023-10-10T19:04:08.513Z,14.80
2023-10-10T19:06:40.093Z,14.80
2023-10-10T19:09:12.504Z,14.70
2023-10-10T19:11:44.337Z,14.80
2023-10-10T19:14:14.051Z,14.60
2023-10-10T19:16:42.296Z,14.70
2023-10-10T19:19:10.247Z,14.50
2023-10-10T19:21:38.265Z,14.50
2023-10-10T19:24:08.312Z,14.40
2023-10-10T19:26:36.318Z,14.40
2023-10-10T19:29:08.265Z,14.40
2023-10-10T19:31:40.943Z,14.40
2023-10-10T19:34:11.699Z,14.40
2023-10-10T19:36:40.086Z,14.40
2023-10-10T19:39:11.292Z,14.30
2023-10-10T19:41:40.245Z,14.30
2023-10-10T19:44:10.034Z,14.30
2023-10-10T19:46:40.852Z,14.30
2023-10-10T19:49:09.482Z,14.30
2023-10-10T19:51:41.841Z,14.20
2023-10-10T19:54:13.996Z,14.20
2023-10-10T19:56:43.567Z,14.20
2023-10-10T19:59:16.855Z,14.10
2023-10-10T20:01:45.189Z,14.10
2023-10-10T20:04:15.546Z,14.10
2023-10-10T20:06:44.015Z,14.10
2023-10-10T20:09:12.532Z,14.00
2023-10-10T20:11:41.725Z,14.00
2023-10-10T20:14:09.870Z,14.00
2023-10-10T20:16:39.639Z,14.00
2023-10-10T20:19:08.218Z,13.90
2023-10-10T20:21:38.746Z,14.00
2023-10-10T20:24:09.449Z,13.90
2023-10-10T20:26:37.927Z,14.00
2023-10-10T20:29:10.475Z,14.00
2023-10-10T20:31:39.997Z,13.90
2023-10-10T20:34:08.589Z,13.90
2023-10-10T20:36:37.827Z,13.90
2023-10-10T20:39:07.332Z,13.90
2023-10-10T20:41:35.383Z,13.90
2023-10-10T20:44:03.726Z,13.90
2023-10-10T20:46:32.641Z,13.80
2023-10-10T20:49:02.058Z,13.80
2023-10-10T20:51:29.959Z,13.70
2023-10-10T20:53:59.226Z,13.80
2023-10-10T20:56:28.786Z,13.80
2023-10-10T20:58:56.864Z,13.70
2023-10-10T21:01:24.877Z,13.70
2023-10-10T21:03:53.090Z,13.70
2023-10-10T21:06:22.887Z,13.70
2023-10-10T21:08:51.247Z,13.80
2023-10-10T21:11:19.184Z,13.80
2023-10-10T21:13:47.887Z,13.80
2023-10-10T21:16:17.152Z,13.70
2023-10-10T21:18:46.911Z,13.70
2023-10-10T21:21:15.496Z,13.70
2023-10-10T21:23:45.054Z,13.70
2023-10-10T21:26:15.110Z,13.70
2023-10-10T21:28:44.056Z,13.70
2023-10-10T21:31:12.852Z,13.70
2023-10-10T21:33:44.715Z,13.60
2023-10-10T21:36:13.614Z,13.60
2023-10-10T21:38:42.432Z,13.60
2023-10-10T21:41:12.801Z,13.60
2023-10-10T21:43:41.148Z,13.50
2023-10-10T21:46:09.422Z,13.50
2023-10-10T21:48:37.877Z,13.40
2023-10-10T21:51:08.396Z,13.30
2023-10-10T21:53:37.393Z,13.40
2023-10-10T21:56:06.699Z,13.40
2023-10-10T21:58:39.850Z,13.30
2023-10-10T22:01:11.799Z,13.30
2023-10-10T22:03:43.649Z,13.30
2023-10-10T22:06:12.133Z,13.20
2023-10-10T22:08:40.187Z,13.20
2023-10-10T22:11:09.326Z,13.30
2023-10-10T22:13:38.660Z,13.30
2023-10-10T22:16:06.819Z,13.20
2023-10-10T22:18:35.100Z,13.30
2023-10-10T22:21:03.141Z,13.30
2023-10-10T22:23:31.119Z,13.40
2023-10-10T22:26:03.385Z,13.40
2023-10-10T22:28:32.918Z,13.40
2023-10-10T22:31:02.255Z,13.40
2023-10-10T22:33:30.250Z,13.50
2023-10-10T22:35:58.526Z,13.50
2023-10-10T22:38:26.497Z,13.50
2023-10-10T22:40:56.962Z,13.50
2023-10-10T22:43:26.492Z,13.40
2023-10-10T22:45:54.449Z,13.50
2023-10-10T22:48:23.786Z,13.50
2023-10-10T22:50:54.062Z,13.50
2023-10-10T22:53:22.493Z,13.50
2023-10-10T22:55:50.464Z,13.50
2023-10-10T22:58:21.310Z,13.50
2023-10-10T23:00:49.348Z,13.50
2023-10-10T23:03:20.417Z,13.50
2023-10-10T23:05:50.185Z,13.60
2023-10-10T23:08:19.228Z,13.60
2023-10-10T23:10:49.373Z,13.60
2023-10-10T23:13:17.724Z,13.60
2023-10-10T23:15:49.043Z,13.50
2023-10-10T23:18:18.628Z,13.60
2023-10-10T23:20:47.435Z,13.60
2023-10-10T23:23:17.714Z,13.50
2023-10-10T23:25:48.397Z,13.50
2023-10-10T23:28:16.254Z,13.40
2023-10-10T23:30:44.156Z,13.30
2023-10-10T23:33:14.080Z,13.20
2023-10-10T23:35:42.926Z,13.20
2023-10-10T23:38:11.785Z,13.20
2023-10-10T23:40:42.464Z,13.20
2023-10-10T23:43:19.297Z,13.10
2023-10-10T23:45:49.905Z,13.10
2023-10-10T23:48:18.529Z,13.10
2023-10-10T23:50:47.133Z,13.10
2023-10-10T23:53:15.913Z,13.10
2023-10-10T23:55:48.335Z,13.10
2023-10-10T23:58:17.569Z,13.10
